Time;durP1;ratioP1;P1;durP2;ratioP2;P2;SDS_P1;SDS_P2;PMS_P1;PMS_P2;Temp;Humidity;BMP_temperature;BMP_pressure;BME280_temperature;BME280_humidity;BME280_pressure;Samples;Min_cycle;Max_cycle;Signal;HPM_P1;HPM_P2
2021/09/09 00:00:10;;;;;;;38.45;30.67;;;21.20;99.90;;;21.62;69.45;100970.75;5099153;28;20054;-69
2021/09/09 00:02:40;;;;;;;35.67;29.95;;;21.20;99.90;;;21.68;69.20;100965.94;5117481;28;20090;-69
2021/09/09 00:05:10;;;;;;;36.63;30.70;;;21.30;99.90;;;21.61;69.23;100967.19;5116609;28;20044;-69
2021/09/09 00:07:40;;;;;;;;;;;21.30;99.90;;;21.43;69.83;100965.38;5117539;28;20039;-69
2021/09/09 00:10:10;;;;;;;38.13;30.88;;;21.10;99.90;;;21.56;69.67;100969.25;5116920;28;19923;-69
2021/09/09 00:12:41;;;;;;;35.33;30.08;;;21.10;99.90;;;21.58;69.61;100962.81;5116771;28;20134;-69
2021/09/09 00:15:11;;;;;;;38.35;31.67;;;21.10;99.90;;;21.58;69.35;100958.41;5116547;28;20044;-70
2021/09/09 00:17:40;;;;;;;39.10;30.50;;;21.20;99.90;;;21.55;69.57;100954.91;5116881;28;20128;-69
2021/09/09 00:20:11;;;;;;;38.67;30.90;;;21.10;99.90;;;21.67;69.20;100953.44;5116790;28;20050;-69
2021/09/09 00:22:42;;;;;;;38.20;31.85;;;21.20;99.90;;;21.54;69.46;100945.06;5116786;28;20035;-69
2021/09/09 00:25:12;;;;;;;37.47;30.83;;;21.20;99.90;;;21.54;69.32;100944.22;5116637;28;20393;-69
2021/09/09 00:27:41;;;;;;;40.80;32.67;;;21.20;99.90;;;21.56;69.25;100951.25;5116613;28;20036;-69
2021/09/09 00:30:11;;;;;;;35.20;30.15;;;21.20;99.90;;;21.50;69.58;100940.78;5098260;28;20143;-69
2021/09/09 00:32:42;;;;;;;46.22;31.83;;;21.10;99.90;;;21.64;69.41;100941.94;5116594;28;20096;-69
2021/09/09 00:35:11;;;;;;;39.65;32.25;;;21.10;99.90;;;21.35;69.98;100946.03;5116069;28;20043;-71
2021/09/09 00:37:42;;;;;;;39.35;32.05;;;21.00;99.90;;;21.41;70.00;100941.22;5116469;28;20480;-69
2021/09/09 00:40:12;;;;;;;43.70;32.65;;;21.00;99.90;;;21.49;69.95;100933.66;5098129;28;20512;-69
2021/09/09 00:42:40;;;;;;;39.47;31.13;;;21.10;99.90;;;21.55;69.34;100932.47;5094439;28;20493;-69
2021/09/09 00:45:10;;;;;;;36.47;32.30;;;21.10;99.90;;;21.60;69.07;100935.84;5096083;28;20119;-69
2021/09/09 00:47:40;;;;;;;42.78;31.88;;;21.20;99.90;;;21.55;68.98;100927.09;5095616;28;20459;-69
2021/09/09 00:50:10;;;;;;;38.38;32.22;;;21.20;99.90;;;21.59;68.82;100912.53;5095604;28;20052;-69
2021/09/09 00:52:46;;;;;;;41.28;34.60;;;21.20;99.90;;;21.66;68.53;100924.75;5095527;28;20126;-69
2021/09/09 00:55:15;;;;;;;38.47;32.33;;;21.30;99.90;;;21.72;68.69;100921.75;5095778;28;20032;-69
2021/09/09 00:57:45;;;;;;;40.85;31.20;;;21.30;99.90;;;21.90;68.25;100918.19;5095432;28;20063;-69
2021/09/09 01:00:16;;;;;;;37.85;32.53;;;21.40;99.90;;;21.87;67.93;100904.91;5095597;28;20086;-69
2021/09/09 01:02:45;;;;;;;38.90;31.85;;;21.50;99.90;;;21.96;67.50;100904.41;5095403;28;20085;-69
2021/09/09 01:05:13;;;;;;;37.63;31.65;;;21.50;99.90;;;22.02;67.40;100904.13;5095100;28;20047;-69
2021/09/09 01:07:43;;;;;;;38.75;32.55;;;21.60;99.90;;;21.98;67.26;100896.25;5094253;28;20468;-69
2021/09/09 01:10:12;;;;;;;40.63;33.33;;;21.60;99.90;;;21.90;66.96;100923.56;5094465;28;20481;-69
2021/09/09 01:12:41;;;;;;;38.60;33.10;;;21.60;99.90;;;21.95;67.23;100899.97;5095064;28;20068;-69
2021/09/09 01:15:11;;;;;;;41.92;32.10;;;21.50;99.90;;;22.01;67.03;100918.50;5095067;28;20036;-69
2021/09/09 01:17:40;;;;;;;41.78;33.17;;;21.60;99.90;;;21.99;66.96;100885.38;5095350;28;20075;-69
2021/09/09 01:20:10;;;;;;;36.63;31.33;;;21.60;99.90;;;22.11;66.78;100890.16;5093994;28;20057;-69
2021/09/09 01:22:39;;;;;;;;;;;21.60;99.90;;;22.07;66.23;100887.69;5095452;28;20093;-70
2021/09/09 01:25:10;;;;;;;40.28;31.80;;;21.80;99.90;;;21.91;66.85;100894.84;5095187;28;19920;-69
2021/09/09 01:27:39;;;;;;;40.80;32.97;;;21.60;99.90;;;21.88;67.04;100886.88;5094841;28;20100;-69
2021/09/09 01:30:08;;;;;;;37.58;32.92;;;21.50;99.90;;;21.91;66.75;100892.97;5095332;28;20040;-69
2021/09/09 01:32:37;;;;;;;36.72;32.17;;;21.50;99.90;;;21.77;67.17;100887.41;5094962;28;20059;-69
2021/09/09 01:35:07;;;;;;;40.05;33.22;;;21.40;99.90;;;21.78;66.91;100886.44;5094660;28;20089;-69
2021/09/09 01:37:35;;;;;;;41.83;32.83;;;21.40;99.90;;;21.64;67.37;100893.47;5094626;28;20485;-69
2021/09/09 01:40:05;;;;;;;41.65;33.95;;;21.30;99.90;;;21.58;67.40;100901.84;5095015;28;20040;-69
2021/09/09 01:42:35;;;;;;;40.92;33.30;;;21.20;99.90;;;21.51;67.81;100893.19;5100639;28;20056;-69
2021/09/09 01:45:06;;;;;;;40.40;34.43;;;21.10;99.90;;;21.46;67.78;100895.25;5114851;28;20488;-69
2021/09/09 01:47:34;;;;;;;41.28;33.25;;;21.10;99.90;;;21.51;67.80;100895.88;5114783;28;20488;-69
2021/09/09 01:50:05;;;;;;;42.08;33.90;;;21.10;99.90;;;21.48;67.75;100896.06;5114739;28;20066;-69
2021/09/09 01:52:34;;;;;;;41.30;34.00;;;21.10;99.90;;;21.59;67.66;100901.78;5096678;28;20489;-69
2021/09/09 01:55:02;;;;;;;43.08;34.38;;;21.10;99.90;;;21.65;67.38;100890.72;5114581;28;20131;-69
2021/09/09 01:57:31;;;;;;;39.90;33.17;;;21.20;99.90;;;21.27;67.09;100817.22;5114568;28;20044;-69
2021/09/09 02:00:04;;;;;;;42.83;34.38;;;21.30;99.90;;;21.72;67.09;100892.13;5114490;28;20130;-69
2021/09/09 02:02:39;;;;;;;42.10;33.47;;;21.30;99.90;;;21.78;66.69;100897.22;5114559;28;20493;-69
2021/09/09 02:05:09;;;;;;;42.83;32.30;;;21.40;99.90;;;21.71;66.77;100886.84;5114782;28;20309;-69
2021/09/09 02:07:38;;;;;;;40.72;33.03;;;21.30;99.90;;;21.82;66.63;100882.69;5114676;28;20040;-69
2021/09/09 02:10:08;;;;;;;37.85;33.08;;;21.40;99.90;;;21.81;66.45;100875.56;5114317;28;20141;-69
2021/09/09 02:12:38;;;;;;;38.08;33.15;;;21.40;99.90;;;21.74;66.58;100886.69;5114645;28;20036;-70
2021/09/09 02:15:08;;;;;;;39.95;34.80;;;21.30;99.90;;;21.67;66.65;100890.63;5114227;28;20063;-69
2021/09/09 02:17:37;;;;;;;39.63;34.17;;;21.30;99.90;;;21.26;67.66;100885.44;5114267;28;20554;-69
2021/09/09 02:20:07;;;;;;;39.38;34.13;;;21.00;99.90;;;21.31;67.72;100890.63;5114402;28;20067;-69
2021/09/09 02:22:37;;;;;;;43.78;36.33;;;20.90;99.90;;;21.30;67.69;100895.13;5114163;28;20550;-69
2021/09/09 02:25:06;;;;;;;44.00;35.50;;;20.90;99.90;;;21.39;67.44;100901.84;5096083;28;20043;-69
2021/09/09 02:27:34;;;;;;;41.55;34.38;;;21.00;99.90;;;21.48;67.37;100893.34;5114390;28;20134;-69
2021/09/09 02:30:04;;;;;;;39.97;33.75;;;21.00;99.90;;;21.56;67.05;100889.31;5114287;28;20123;-68
2021/09/09 02:32:35;;;;;;;43.83;33.97;;;21.10;99.90;;;21.50;67.01;100880.69;5114268;28;20044;-69
2021/09/09 02:35:03;;;;;;;43.20;35.83;;;21.10;99.90;;;21.54;66.91;100887.69;5095846;28;20052;-69
2021/09/09 02:37:32;;;;;;;43.45;35.75;;;21.10;99.90;;;21.58;67.07;100888.41;5113853;28;20118;-69
2021/09/09 02:40:00;;;;;;;39.80;34.35;;;21.20;99.90;;;21.49;66.89;100857.41;5113821;28;20055;-69
2021/09/09 02:42:29;;;;;;;41.13;34.50;;;21.20;99.90;;;21.61;66.83;100878.34;5113596;28;20110;-68
2021/09/09 02:44:58;;;;;;;39.13;32.95;;;21.20;99.90;;;21.66;66.59;100872.75;5114072;28;20092;-70
2021/09/09 02:47:26;;;;;;;40.08;33.97;;;21.20;99.90;;;21.65;66.66;100879.94;5113641;28;20122;-69
2021/09/09 02:49:56;;;;;;;43.20;34.67;;;21.30;99.90;;;21.64;66.21;100880.88;5113624;28;20489;-69
2021/09/09 02:52:24;;;;;;;36.95;32.85;;;21.30;99.90;;;21.55;66.11;100867.88;5113664;28;20454;-69
2021/09/09 02:54:52;;;;;;;42.47;33.40;;;21.30;99.90;;;21.56;66.33;100851.63;5113894;28;20047;-69
2021/09/09 02:57:21;;;;;;;42.78;34.15;;;21.30;99.90;;;21.59;66.31;100869.47;5095670;28;20064;-69
2021/09/09 02:59:49;;;;;;;38.25;34.03;;;21.20;99.90;;;21.62;66.41;100868.44;5113885;28;20122;-69
2021/09/09 03:02:18;;;;;;;43.67;34.92;;;21.20;99.90;;;21.53;66.44;100849.09;5113832;28;20044;-69
2021/09/09 03:04:47;;;;;;;42.05;33.83;;;21.20;99.90;;;21.55;66.47;100866.06;5113914;28;20074;-69
2021/09/09 03:07:17;;;;;;;42.25;35.50;;;21.20;99.90;;;21.58;66.23;100864.16;5113748;28;20047;-69
2021/09/09 03:09:46;;;;;;;;;;;21.20;99.90;;;21.53;66.17;100862.56;5114288;28;20097;-69
2021/09/09 03:12:14;;;;;;;39.88;34.75;;;21.20;99.90;;;21.49;66.42;100860.09;5113759;28;20364;-69
2021/09/09 03:14:43;;;;;;;42.42;33.47;;;21.10;99.90;;;21.52;66.31;100859.97;5114009;28;20043;-69
2021/09/09 03:17:11;;;;;;;38.88;34.28;;;21.10;99.90;;;21.40;66.26;100829.13;5113667;28;20126;-69
2021/09/09 03:19:40;;;;;;;40.70;33.78;;;21.10;99.90;;;21.56;66.13;100853.47;5113347;28;20519;-69
2021/09/09 03:22:08;;;;;;;39.05;34.20;;;21.10;99.90;;;21.48;66.23;100851.16;5113323;28;20551;-69
2021/09/09 03:24:38;;;;;;;42.33;33.78;;;21.10;99.90;;;21.53;66.16;100850.91;5113323;28;20047;-69
2021/09/09 03:27:06;;;;;;;41.77;34.80;;;21.10;99.90;;;21.43;66.20;100847.81;5113247;28;20036;-66
2021/09/09 03:29:35;;;;;;;42.58;34.97;;;21.00;99.90;;;21.40;65.96;100856.06;5095356;28;20047;-66
2021/09/09 03:32:04;;;;;;;42.38;34.28;;;21.00;99.90;;;21.32;66.46;100860.06;5095527;28;20146;-67
2021/09/09 03:34:32;;;;;;;41.55;34.65;;;20.90;99.90;;;21.13;66.95;100854.69;5117751;28;20050;-66
2021/09/09 03:37:01;;;;;;;40.35;34.42;;;20.80;99.90;;;21.20;66.70;100855.25;5117288;28;20063;-66
2021/09/09 03:39:30;;;;;;;46.33;36.83;;;20.80;99.90;;;21.03;67.12;100860.56;5117586;28;20043;-67
2021/09/09 03:42:00;;;;;;;43.28;36.20;;;20.70;99.90;;;20.94;67.42;100866.38;5117047;28;20105;-66
2021/09/09 03:44:28;;;;;;;43.30;35.08;;;20.60;99.90;;;20.81;67.96;100865.19;5117456;28;20047;-66
2021/09/09 03:46:56;;;;;;;43.33;36.22;;;20.50;99.90;;;20.77;68.25;100847.47;5117613;28;20093;-66
2021/09/09 03:49:25;;;;;;;50.45;36.13;;;20.40;99.90;;;20.77;68.21;100851.00;5117117;28;20092;-68
2021/09/09 03:51:53;;;;;;;43.22;35.42;;;20.40;99.90;;;20.87;68.12;100851.44;5117035;28;20039;-67
2021/09/09 03:54:21;;;;;;;44.70;36.28;;;20.50;99.90;;;20.97;67.83;100852.75;5117292;28;20067;-68
2021/09/09 03:56:50;;;;;;;47.67;36.60;;;20.50;99.90;;;20.97;67.82;100853.63;5116970;28;20564;-68
2021/09/09 03:59:19;;;;;;;39.65;35.28;;;20.50;99.90;;;20.93;67.56;100840.41;5098935;28;20485;-67
2021/09/09 04:01:48;;;;;;;45.33;35.47;;;20.60;99.90;;;21.03;67.60;100852.50;5116922;28;20054;-68
2021/09/09 04:04:17;;;;;;;44.25;35.55;;;20.60;99.90;;;20.83;67.54;100837.28;5117095;28;20388;-68
2021/09/09 04:06:45;;;;;;;39.40;35.17;;;20.50;99.90;;;20.75;67.84;100847.50;5116972;28;20096;-67
2021/09/09 04:09:14;;;;;;;41.83;34.42;;;20.40;99.90;;;20.78;67.77;100852.75;5116612;28;20130;-66
2021/09/09 04:11:42;;;;;;;45.03;34.97;;;20.40;99.90;;;20.74;67.60;100834.16;5116635;28;20047;-67
2021/09/09 04:14:11;;;;;;;43.80;34.08;;;20.40;99.90;;;20.78;67.49;100846.50;5116569;28;20044;-68
2021/09/09 04:16:41;;;;;;;41.97;33.63;;;20.40;99.90;;;20.62;67.83;100851.72;5116849;28;20075;-68
2021/09/09 04:19:10;;;;;;;40.70;34.33;;;20.30;99.90;;;20.55;68.11;100845.78;5116603;28;20413;-69
2021/09/09 04:21:38;;;;;;;44.70;33.63;;;20.20;99.90;;;20.56;68.10;100836.75;5116462;28;20036;-69
2021/09/09 04:24:07;;;;;;;40.88;32.58;;;20.20;99.90;;;20.78;67.71;100822.31;5116418;28;20439;-70
2021/09/09 04:26:35;;;;;;;43.95;34.35;;;20.30;99.90;;;20.92;67.58;100819.84;5116680;28;20074;-68
2021/09/09 04:29:07;;;;;;;41.58;32.88;;;20.40;99.90;;;20.98;67.17;100806.09;5116587;28;20050;-69
2021/09/09 04:31:36;;;;;;;42.72;33.20;;;20.50;99.90;;;21.03;66.82;100809.47;5116287;28;20115;-68
2021/09/09 04:34:06;;;;;;;37.40;31.95;;;20.60;99.90;;;21.12;66.76;100799.13;5116367;28;20116;-68
2021/09/09 04:36:34;;;;;;;41.10;31.58;;;20.70;99.90;;;21.16;66.42;100795.34;5116212;28;20109;-68
2021/09/09 04:39:03;;;;;;;39.45;33.60;;;20.70;99.90;;;21.11;66.22;100804.59;5116054;28;20092;-68
2021/09/09 04:41:32;;;;;;;37.03;31.77;;;20.70;99.90;;;21.06;66.35;100793.19;5116379;28;20035;-68
2021/09/09 04:44:00;;;;;;;37.88;33.17;;;20.70;99.90;;;21.15;66.53;100800.81;5096629;28;20512;-68
2021/09/09 04:46:28;;;;;;;43.58;33.33;;;20.70;99.90;;;21.15;66.36;100792.75;5097982;28;20085;-69
2021/09/09 04:48:57;;;;;;;38.83;32.85;;;20.70;99.90;;;21.15;66.28;100784.66;5116259;28;20043;-68
2021/09/09 04:51:27;;;;;;;39.85;32.70;;;20.70;99.90;;;21.15;66.24;100784.66;5115834;28;20046;-69
2021/09/09 04:53:55;;;;;;;36.33;31.37;;;20.70;99.90;;;21.18;66.35;100782.69;5115830;28;20492;-68
2021/09/09 04:56:24;;;;;;;40.47;32.42;;;20.70;99.90;;;21.06;66.15;100783.28;5115755;28;20339;-68
2021/09/09 04:58:52;;;;;;;40.38;33.88;;;20.70;99.90;;;20.91;66.75;100789.38;5097655;28;20052;-68
2021/09/09 05:01:20;;;;;;;40.35;32.97;;;20.60;99.90;;;20.73;67.75;100792.09;5115970;28;20071;-69
2021/09/09 05:03:49;;;;;;;39.40;32.55;;;20.40;99.90;;;20.73;67.88;100784.03;5115442;28;20488;-69
2021/09/09 05:06:17;;;;;;;40.05;33.75;;;20.40;99.90;;;20.71;68.07;100777.84;5115891;28;20035;-68
2021/09/09 05:08:47;;;;;;;38.88;32.58;;;20.40;99.90;;;20.60;68.22;100786.41;5115472;28;20046;-68
2021/09/09 05:11:17;;;;;;;39.10;32.78;;;20.20;99.90;;;20.54;68.36;100790.25;5115659;28;20515;-68
2021/09/09 05:13:45;;;;;;;42.75;33.50;;;20.20;99.90;;;20.44;68.63;100786.25;5115487;28;20493;-69
2021/09/09 05:16:14;;;;;;;41.90;31.98;;;20.10;99.90;;;20.33;69.01;100793.94;5115378;28;20038;-68
2021/09/09 05:18:42;;;;;;;39.92;33.10;;;20.00;99.90;;;19.97;69.99;100792.88;5115353;28;20047;-68
2021/09/09 05:21:11;;;;;;;43.80;34.97;;;19.60;99.90;;;19.98;70.38;100797.28;5115584;28;20039;-68
2021/09/09 05:23:39;;;;;;;39.40;33.35;;;19.60;99.90;;;19.99;70.17;100801.72;5115066;28;20093;-68
2021/09/09 05:26:09;;;;;;;43.35;32.53;;;19.60;99.90;;;20.01;70.53;100797.16;5115547;28;20042;-68
2021/09/09 05:28:37;;;;;;;38.13;32.53;;;19.60;99.90;;;20.23;69.90;100784.53;5114562;28;20093;-69
2021/09/09 05:31:06;;;;;;;38.92;32.08;;;19.80;99.90;;;20.44;69.59;100780.88;5114830;28;20043;-68
2021/09/09 05:33:34;;;;;;;40.45;30.55;;;20.00;99.90;;;20.58;69.19;100778.41;5114833;28;20069;-68
2021/09/09 05:36:03;;;;;;;40.35;31.33;;;20.10;99.90;;;20.71;68.72;100786.78;5115222;28;20044;-69
2021/09/09 05:38:31;;;;;;;40.90;31.33;;;20.30;99.90;;;20.83;68.31;100780.81;5115154;28;20044;-68
2021/09/09 05:40:59;;;;;;;40.72;31.48;;;20.40;99.90;;;20.95;68.01;100777.53;5115228;28;20063;-69
2021/09/09 05:43:29;;;;;;;36.88;30.75;;;20.50;99.90;;;21.06;67.60;100787.81;5115070;28;20078;-70
2021/09/09 05:45:58;;;;;;;37.58;30.63;;;20.60;99.90;;;20.98;67.31;100789.97;5114997;28;20044;-68
2021/09/09 05:48:27;;;;;;;35.17;29.80;;;20.60;99.90;;;21.05;67.12;100781.56;5114875;28;20036;-68
2021/09/09 05:50:55;;;;;;;40.42;31.35;;;20.70;99.90;;;20.96;67.10;100790.06;5114625;28;20092;-69
2021/09/09 05:53:23;;;;;;;40.47;32.08;;;20.60;99.90;;;20.64;67.53;100764.69;5096472;28;20531;-68
2021/09/09 05:55:52;;;;;;;36.90;30.23;;;20.40;99.90;;;20.89;67.69;100785.00;5114376;28;20496;-68
2021/09/09 05:58:20;;;;;;;34.95;28.42;;;20.40;99.90;;;20.92;67.55;100787.56;5114530;28;20043;-69
2021/09/09 06:00:50;;;;;;;37.30;31.52;;;20.50;99.90;;;20.99;67.44;100780.94;5114772;28;20070;-68
2021/09/09 06:03:25;;;;;;;37.33;30.10;;;20.60;99.90;;;21.13;67.13;100778.50;5114676;28;20052;-68
2021/09/09 06:06:00;;;;;;;38.25;30.60;;;20.70;99.90;;;21.22;66.76;100772.66;5114980;28;20044;-68
2021/09/09 06:08:31;;;;;;;39.88;30.83;;;20.80;99.90;;;21.21;66.83;100779.00;5114332;28;20065;-68
2021/09/09 06:10:59;;;;;;;37.90;29.70;;;20.80;99.90;;;21.21;66.79;100779.00;5114434;28;20092;-68
2021/09/09 06:13:28;;;;;;;40.03;30.02;;;20.80;99.90;;;21.10;67.09;100784.03;5114156;28;20378;-68
2021/09/09 06:15:58;;;;;;;41.85;30.92;;;20.70;99.90;;;20.89;68.06;100785.00;5114386;28;20106;-68
2021/09/09 06:18:27;;;;;;;37.03;30.17;;;20.60;99.90;;;20.97;68.36;100783.72;5096195;28;20101;-69
2021/09/09 06:20:55;;;;;;;37.42;30.30;;;20.50;99.90;;;21.23;67.64;100777.09;5114147;28;20031;-68
2021/09/09 06:23:23;;;;;;;39.65;30.15;;;20.70;99.90;;;21.45;67.24;100772.38;5096110;28;20529;-68
2021/09/09 06:25:53;;;;;;;37.45;30.42;;;21.00;99.90;;;21.54;66.19;100778.16;5113990;28;20497;-68
2021/09/09 06:28:21;;;;;;;34.58;27.98;;;21.10;99.90;;;21.00;66.71;100686.72;5114169;28;20073;-69
2021/09/09 06:30:50;;;;;;;36.65;30.17;;;21.10;99.90;;;21.71;66.55;100793.47;5095949;28;20051;-69
2021/09/09 06:33:20;;;;;;;39.88;29.00;;;21.20;99.90;;;21.58;67.04;100810.31;5113914;28;20050;-69
2021/09/09 06:35:48;;;;;;;40.03;28.98;;;21.10;99.90;;;21.84;66.68;100820.66;5114538;28;20047;-69
2021/09/09 06:38:17;;;;;;;37.33;29.13;;;21.30;99.90;;;22.08;66.29;100835.56;5095832;28;20039;-69
2021/09/09 06:40:45;;;;;;;39.53;31.13;;;21.50;99.90;;;22.23;66.65;100838.31;5113611;28;20035;-69
2021/09/09 06:43:13;;;;;;;37.92;29.92;;;21.80;99.90;;;22.51;66.84;100855.72;5113610;28;20497;-69
2021/09/09 06:45:42;;;;;;;32.40;27.95;;;22.00;99.90;;;22.69;65.72;100843.94;5113738;28;20063;-69
2021/09/09 06:48:10;;;;;;;35.33;27.63;;;22.20;99.90;;;22.73;65.24;100837.44;5095795;28;20090;-69
2021/09/09 06:50:40;;;;;;;32.75;26.45;;;22.30;99.90;;;22.88;63.76;100829.38;5095540;28;20484;-69
2021/09/09 06:53:09;;;;;;;31.23;25.10;;;22.50;99.90;;;22.98;63.20;100836.00;5113980;28;20039;-68
2021/09/09 06:55:37;;;;;;;33.03;25.98;;;22.70;99.90;;;22.96;63.82;100835.22;5114204;28;20062;-69
2021/09/09 06:58:06;;;;;;;27.70;23.92;;;22.60;99.90;;;23.05;62.38;100842.78;5113582;28;20043;-69
2021/09/09 07:00:34;;;;;;;30.27;25.42;;;22.70;99.90;;;23.28;62.08;100833.41;5113864;28;20047;-69
2021/09/09 07:03:03;;;;;;;35.92;24.65;;;22.90;99.90;;;23.26;61.13;100846.13;5113587;28;20065;-69
2021/09/09 07:05:32;;;;;;;33.90;24.63;;;22.90;99.90;;;23.36;61.38;100828.47;5113446;28;20135;-69
2021/09/09 07:08:02;;;;;;;29.48;23.90;;;23.00;99.90;;;23.38;61.16;100831.97;5112820;28;20047;-68
2021/09/09 07:10:31;;;;;;;28.95;23.98;;;23.10;99.90;;;23.37;60.60;100827.50;5113405;28;20044;-69
2021/09/09 07:12:59;;;;;;;33.00;23.52;;;23.10;99.90;;;23.39;59.96;100824.72;5113449;28;20063;-64
2021/09/09 07:15:28;;;;;;;28.33;23.63;;;23.00;99.90;;;23.55;59.86;100815.63;5095496;28;20071;-63
2021/09/09 07:17:56;;;;;;;28.63;24.98;;;23.20;99.90;;;23.44;60.05;100807.28;5113670;28;20131;-62
2021/09/09 07:20:25;;;;;;;32.55;24.58;;;23.10;99.90;;;23.80;60.96;100815.94;5113523;28;20495;-63
2021/09/09 07:22:53;;;;;;;28.10;24.40;;;23.30;99.90;;;24.03;60.28;100819.97;5113555;28;20042;-62
2021/09/09 07:25:23;;;;;;;30.70;23.77;;;23.60;99.90;;;24.33;58.95;100828.06;5113353;28;20043;-62
2021/09/09 07:27:52;;;;;;;32.05;23.45;;;23.90;99.90;;;24.36;58.04;100830.56;5095339;28;20043;-62
2021/09/09 07:30:20;;;;;;;26.40;21.95;;;24.00;99.90;;;24.26;58.70;100841.06;5113180;28;20054;-62
2021/09/09 07:32:49;;;;;;;27.83;21.70;;;23.90;99.90;;;24.50;58.34;100834.16;5095231;28;20056;-62
2021/09/09 07:35:17;;;;;;;29.15;21.08;;;24.10;99.90;;;24.61;57.87;100825.34;5095191;28;20051;-61
2021/09/09 07:37:46;;;;;;;27.63;21.70;;;24.20;99.90;;;24.69;58.04;100834.75;5113704;28;20043;-63
2021/09/09 07:40:15;;;;;;;25.60;22.20;;;24.30;99.90;;;24.66;57.89;100815.13;5113479;28;20036;-62
2021/09/09 07:42:45;;;;;;;27.55;22.08;;;24.40;99.90;;;24.84;58.12;100822.09;5113528;28;20054;-64
2021/09/09 07:45:13;;;;;;;27.23;22.27;;;24.50;99.90;;;25.06;58.22;100825.16;5095150;28;20550;-63
2021/09/09 07:47:42;;;;;;;28.73;22.52;;;24.70;99.90;;;25.23;57.52;100822.22;5113100;28;20118;-65
2021/09/09 07:50:12;;;;;;;26.55;21.90;;;24.90;99.90;;;25.58;57.05;100847.88;5113239;28;20055;-63
2021/09/09 07:52:41;;;;;;;28.02;24.23;;;25.20;99.90;;;25.75;56.72;100849.44;5113270;28;20122;-64
2021/09/09 07:55:12;;;;;;;29.95;24.77;;;25.40;99.90;;;25.79;55.63;100835.59;5113785;28;20044;-63
2021/09/09 07:57:45;;;;;;;30.38;23.42;;;25.50;99.90;;;25.99;55.52;100849.63;5113175;28;20044;-64
2021/09/09 08:00:15;;;;;;;29.00;23.98;;;25.60;99.90;;;26.10;55.68;100852.50;5113311;28;20048;-65
2021/09/09 08:02:44;;;;;;;31.77;24.13;;;25.70;99.90;;;26.08;55.73;100857.16;5113167;28;20092;-65
2021/09/09 08:05:13;;;;;;;29.48;24.58;;;25.70;99.90;;;26.03;55.58;100856.59;5094840;28;20052;-64
2021/09/09 08:07:42;;;;;;;32.08;24.95;;;25.60;99.90;;;25.82;55.65;100819.13;5113186;28;20109;-63
2021/09/09 08:10:14;;;;;;;30.55;24.98;;;25.60;99.90;;;26.07;55.77;100863.56;5113112;28;20096;-65
2021/09/09 08:12:45;;;;;;;28.75;24.08;;;25.60;99.90;;;26.06;56.12;100857.28;5113164;28;20044;-64
2021/09/09 08:15:15;;;;;;;30.10;23.85;;;25.70;99.90;;;26.05;56.55;100870.91;5112891;28;20112;-66
2021/09/09 08:17:44;;;;;;;29.37;24.33;;;25.70;99.90;;;26.03;56.76;100865.59;5112795;28;20517;-65
2021/09/09 08:20:13;;;;;;;28.23;24.60;;;25.60;99.90;;;25.96;56.16;100863.41;5116105;28;20043;-66
2021/09/09 08:22:42;;;;;;;30.83;24.17;;;25.60;99.90;;;25.92;56.90;100871.75;5116736;28;20102;-66
2021/09/09 08:25:12;;;;;;;29.45;24.92;;;25.50;99.90;;;25.89;56.75;100855.69;5116399;28;20420;-65
2021/09/09 08:27:40;;;;;;;30.95;25.70;;;25.50;99.90;;;25.92;57.07;100852.75;5116625;28;20493;-66
2021/09/09 08:30:11;;;;;;;29.65;24.80;;;25.50;99.90;;;25.95;57.10;100859.84;5116189;28;20067;-65
2021/09/09 08:32:40;;;;;;;29.70;25.45;;;25.50;99.90;;;25.97;57.54;100865.13;5116364;28;20063;-64
2021/09/09 08:35:11;;;;;;;34.50;26.63;;;25.50;99.90;;;25.98;57.76;100853.34;5116638;28;20449;-65
2021/09/09 08:37:39;;;;;;;;;;;25.60;99.90;;;26.19;57.38;100854.59;5116660;28;20040;-65
2021/09/09 08:40:10;;;;;;;33.08;25.58;;;25.80;99.90;;;26.50;56.69;100868.63;5116135;28;20475;-66
2021/09/09 08:42:43;;;;;;;29.35;26.23;;;26.00;99.90;;;25.63;57.39;100744.59;5116142;28;20056;-65
2021/09/09 08:45:14;;;;;;;33.85;26.00;;;26.00;99.90;;;26.35;57.58;100872.41;5116152;28;20040;-65
2021/09/09 08:47:44;;;;;;;28.77;24.00;;;26.00;99.90;;;26.44;58.58;100865.50;5115907;28;20488;-66
2021/09/09 08:50:12;;;;;;;32.30;26.08;;;26.00;99.90;;;26.70;58.32;100875.38;5116015;28;20035;-65
2021/09/09 08:52:41;;;;;;;29.63;24.67;;;26.20;99.90;;;26.91;57.36;100879.28;5097944;28;20465;-66
2021/09/09 08:55:11;;;;;;;35.72;26.65;;;26.50;99.90;;;27.03;57.06;100878.41;5116015;28;20039;-66
2021/09/09 08:57:39;;;;;;;;;;;26.70;99.90;;;27.25;56.16;100873.16;5116287;28;20044;-67
2021/09/09 09:00:10;;;;;;;28.58;24.55;;;26.90;99.90;;;27.42;56.04;100883.69;5115717;28;19977;-68
2021/09/09 09:02:58;;;;;;;30.45;26.23;;;27.00;99.90;;;27.57;56.12;100877.09;5115773;28;20159;-68
2021/09/09 09:05:27;;;;;;;30.10;25.92;;;27.20;99.90;;;27.56;55.85;100885.38;5116133;28;20513;-68
2021/09/09 09:08:02;;;;;;;28.13;24.85;;;27.30;99.90;;;27.73;56.08;100894.97;5115845;28;20082;-68
2021/09/09 09:10:32;;;;;;;29.08;24.20;;;27.30;99.90;;;27.92;56.85;100887.16;5115491;28;20086;-68
2021/09/09 09:13:01;;;;;;;30.05;23.45;;;27.50;99.90;;;28.01;56.07;100889.25;5097552;28;20054;-66
2021/09/09 09:15:32;;;;;;;31.67;23.55;;;27.60;99.90;;;28.17;55.62;100892.50;5115418;28;20043;-61
2021/09/09 09:18:08;;;;;;;2.47;2.38;;;27.80;99.90;;;28.22;55.28;100890.31;5097557;28;20051;-60
2021/09/09 09:20:44;;;;;;;1.30;1.30;;;27.90;99.90;;;28.09;55.37;100894.94;5115315;28;20054;-61
2021/09/09 09:23:19;;;;;;;1.50;1.50;;;27.80;99.90;;;28.31;54.86;100886.88;5115272;28;20040;-60
2021/09/09 09:25:52;;;;;;;1.10;1.10;;;27.90;99.90;;;28.43;55.25;100896.81;5097185;28;20048;-61
2021/09/09 09:28:40;;;;;;;1.65;1.65;;;28.20;99.90;;;28.27;54.59;100897.13;5115147;28;20443;-60
2021/09/09 09:31:11;;;;;;;1.30;1.30;;;28.00;99.90;;;28.20;55.74;100897.72;5114589;28;20048;-60
2021/09/09 09:33:43;;;;;;;1.40;1.40;;;28.00;99.90;;;28.22;55.48;100893.88;5096969;28;20047;-60
2021/09/09 09:36:22;;;;;;;5.85;5.38;;;27.90;99.90;;;28.11;56.21;100892.97;5115037;28;20047;-60
2021/09/09 09:38:53;;;;;;;1.65;1.60;;;27.90;99.90;;;28.11;56.00;100903.84;5115262;28;20089;-61
2021/09/09 09:41:23;;;;;;;1.50;1.48;;;27.80;99.90;;;27.98;57.06;100893.06;5115006;28;20071;-60
2021/09/09 09:43:55;;;;;;;2.05;1.95;;;27.70;99.90;;;27.91;56.64;100891.75;5115316;28;20051;-60
2021/09/09 09:46:33;;;;;;;1.40;1.30;;;27.60;99.90;;;27.99;56.59;100885.78;5115117;28;20497;-60
2021/09/09 09:49:23;;;;;;;1.60;1.60;;;27.60;99.90;;;28.09;57.31;100895.81;5114896;28;20046;-60
2021/09/09 09:51:54;;;;;;;1.48;1.48;;;27.70;99.90;;;28.17;57.05;100890.66;5114943;28;20461;-60
2021/09/09 09:54:25;;;;;;;1.58;1.58;;;27.80;99.90;;;28.29;57.54;100888.84;5114697;28;20047;-60
2021/09/09 09:56:55;;;;;;;2.15;2.05;;;28.00;99.90;;;28.21;56.95;100888.56;5114662;28;20093;-60
2021/09/09 09:59:25;;;;;;;1.77;1.70;;;27.90;99.90;;;28.17;56.60;100887.94;5114528;28;20400;-60
2021/09/09 10:01:53;;;;;;;2.03;1.92;;;27.80;99.90;;;28.31;56.76;100892.31;5114553;28;20067;-60
2021/09/09 10:04:24;;;;;;;1.40;1.40;;;28.00;99.90;;;28.36;56.87;100881.91;5096039;28;20040;-60
2021/09/09 10:06:54;;;;;;;1.83;1.75;;;28.00;99.90;;;28.22;56.02;100884.88;5114379;28;20126;-61
2021/09/09 10:09:22;;;;;;;2.55;2.35;;;27.90;99.90;;;28.22;55.85;100895.75;5114653;28;20051;-61
2021/09/09 10:11:51;;;;;;;2.60;2.40;;;27.90;99.90;;;28.31;56.13;100884.16;5114195;28;20132;-59